sensor_id;sensor_type;location;lat;lon;timestamp;temperature;humidity
10192;DHT22;17580;50.850;4.504;2023-02-15T00:01:28;4.00;93.10
10192;DHT22;17580;50.850;4.504;2023-02-15T00:03:55;3.90;93.70
10192;DHT22;17580;50.850;4.504;2023-02-15T00:06:22;3.90;93.60
10192;DHT22;17580;50.850;4.504;2023-02-15T00:08:49;3.80;94.60
10192;DHT22;17580;50.850;4.504;2023-02-15T00:11:18;3.80;94.70
10192;DHT22;17580;50.850;4.504;2023-02-15T00:14:07;3.90;94.80
10192;DHT22;17580;50.850;4.504;2023-02-15T00:16:35;3.80;95.20
10192;DHT22;17580;50.850;4.504;2023-02-15T00:19:02;3.90;93.70
10192;DHT22;17580;50.850;4.504;2023-02-15T00:21:31;3.90;94.00
10192;DHT22;17580;50.850;4.504;2023-02-15T00:23:59;3.80;93.50
10192;DHT22;17580;50.850;4.504;2023-02-15T00:26:28;3.80;93.70
10192;DHT22;17580;50.850;4.504;2023-02-15T00:28:56;3.80;93.70
10192;DHT22;17580;50.850;4.504;2023-02-15T00:31:26;3.70;93.80
10192;DHT22;17580;50.850;4.504;2023-02-15T00:33:53;3.60;93.60
10192;DHT22;17580;50.850;4.504;2023-02-15T00:36:20;3.70;93.90
10192;DHT22;17580;50.850;4.504;2023-02-15T00:38:47;3.70;94.20
10192;DHT22;17580;50.850;4.504;2023-02-15T00:41:14;3.60;94.10
10192;DHT22;17580;50.850;4.504;2023-02-15T00:43:41;3.60;94.60
10192;DHT22;17580;50.850;4.504;2023-02-15T00:46:08;3.70;95.10
10192;DHT22;17580;50.850;4.504;2023-02-15T00:48:37;3.90;94.80
10192;DHT22;17580;50.850;4.504;2023-02-15T00:51:04;3.60;94.60
10192;DHT22;17580;50.850;4.504;2023-02-15T00:53:31;3.50;94.30
10192;DHT22;17580;50.850;4.504;2023-02-15T00:55:58;3.60;94.20
10192;DHT22;17580;50.850;4.504;2023-02-15T00:58:25;3.50;94.50
10192;DHT22;17580;50.850;4.504;2023-02-15T01:00:52;3.60;94.40
10192;DHT22;17580;50.850;4.504;2023-02-15T01:03:20;3.50;94.90
10192;DHT22;17580;50.850;4.504;2023-02-15T01:05:49;3.40;95.30
10192;DHT22;17580;50.850;4.504;2023-02-15T01:08:16;3.50;95.10
10192;DHT22;17580;50.850;4.504;2023-02-15T01:10:43;3.50;95.30
10192;DHT22;17580;50.850;4.504;2023-02-15T01:13:13;3.40;96.90
10192;DHT22;17580;50.850;4.504;2023-02-15T01:15:41;3.60;96.30
10192;DHT22;17580;50.850;4.504;2023-02-15T01:18:08;3.40;95.90
10192;DHT22;17580;50.850;4.504;2023-02-15T01:20:36;3.30;95.90
10192;DHT22;17580;50.850;4.504;2023-02-15T01:23:08;3.30;96.50
10192;DHT22;17580;50.850;4.504;2023-02-15T01:25:35;3.30;96.50
10192;DHT22;17580;50.850;4.504;2023-02-15T01:28:03;3.40;96.70
10192;DHT22;17580;50.850;4.504;2023-02-15T01:30:30;3.40;96.30
10192;DHT22;17580;50.850;4.504;2023-02-15T01:32:57;3.30;96.00
10192;DHT22;17580;50.850;4.504;2023-02-15T01:35:26;3.30;95.80
10192;DHT22;17580;50.850;4.504;2023-02-15T01:37:54;3.30;95.90
10192;DHT22;17580;50.850;4.504;2023-02-15T01:40:23;3.20;95.40
10192;DHT22;17580;50.850;4.504;2023-02-15T01:42:51;3.20;95.50
10192;DHT22;17580;50.850;4.504;2023-02-15T01:45:23;3.10;95.90
10192;DHT22;17580;50.850;4.504;2023-02-15T01:47:54;3.10;96.30
10192;DHT22;17580;50.850;4.504;2023-02-15T01:50:25;3.10;96.10
10192;DHT22;17580;50.850;4.504;2023-02-15T01:52:55;3.10;96.20
10192;DHT22;17580;50.850;4.504;2023-02-15T01:55:30;3.10;96.30
10192;DHT22;17580;50.850;4.504;2023-02-15T01:58:00;2.80;96.50
10192;DHT22;17580;50.850;4.504;2023-02-15T02:00:27;3.00;96.60
10192;DHT22;17580;50.850;4.504;2023-02-15T02:02:56;3.00;96.40
10192;DHT22;17580;50.850;4.504;2023-02-15T02:05:23;2.80;96.40
10192;DHT22;17580;50.850;4.504;2023-02-15T02:07:52;3.00;96.70
10192;DHT22;17580;50.850;4.504;2023-02-15T02:10:22;2.80;96.50
10192;DHT22;17580;50.850;4.504;2023-02-15T02:12:53;2.90;96.60
10192;DHT22;17580;50.850;4.504;2023-02-15T02:15:26;2.70;96.50
10192;DHT22;17580;50.850;4.504;2023-02-15T02:18:03;2.80;96.30
10192;DHT22;17580;50.850;4.504;2023-02-15T02:23:46;2.80;96.80
10192;DHT22;17580;50.850;4.504;2023-02-15T02:26:54;2.80;96.90
10192;DHT22;17580;50.850;4.504;2023-02-15T02:33:15;2.70;96.90
10192;DHT22;17580;50.850;4.504;2023-02-15T02:35:52;2.90;97.60
10192;DHT22;17580;50.850;4.504;2023-02-15T02:38:26;2.70;97.40
10192;DHT22;17580;50.850;4.504;2023-02-15T02:40:59;2.70;97.10
10192;DHT22;17580;50.850;4.504;2023-02-15T02:43:31;2.80;97.50
10192;DHT22;17580;50.850;4.504;2023-02-15T02:46:02;2.60;97.80
10192;DHT22;17580;50.850;4.504;2023-02-15T02:48:34;2.80;97.20
10192;DHT22;17580;50.850;4.504;2023-02-15T02:51:01;2.90;97.90
10192;DHT22;17580;50.850;4.504;2023-02-15T02:53:29;2.70;98.10
10192;DHT22;17580;50.850;4.504;2023-02-15T02:56:01;2.60;97.80
10192;DHT22;17580;50.850;4.504;2023-02-15T02:58:35;2.60;97.10
10192;DHT22;17580;50.850;4.504;2023-02-15T03:01:06;2.50;97.10
10192;DHT22;17580;50.850;4.504;2023-02-15T03:03:38;2.50;97.70
10192;DHT22;17580;50.850;4.504;2023-02-15T03:06:09;2.60;98.40
10192;DHT22;17580;50.850;4.504;2023-02-15T03:08:40;2.50;97.60
10192;DHT22;17580;50.850;4.504;2023-02-15T03:11:11;2.50;97.60
10192;DHT22;17580;50.850;4.504;2023-02-15T03:13:39;2.60;98.00
10192;DHT22;17580;50.850;4.504;2023-02-15T03:16:07;2.50;97.90
10192;DHT22;17580;50.850;4.504;2023-02-15T03:18:58;2.50;97.80
10192;DHT22;17580;50.850;4.504;2023-02-15T03:21:32;2.60;98.00
10192;DHT22;17580;50.850;4.504;2023-02-15T03:24:03;2.60;98.10
10192;DHT22;17580;50.850;4.504;2023-02-15T03:26:32;2.50;97.90
10192;DHT22;17580;50.850;4.504;2023-02-15T03:29:03;2.50;98.10
10192;DHT22;17580;50.850;4.504;2023-02-15T03:31:33;2.60;98.50
10192;DHT22;17580;50.850;4.504;2023-02-15T03:34:05;2.80;99.20
10192;DHT22;17580;50.850;4.504;2023-02-15T03:36:38;2.50;99.00
10192;DHT22;17580;50.850;4.504;2023-02-15T03:39:13;2.50;98.50
10192;DHT22;17580;50.850;4.504;2023-02-15T03:41:58;2.40;98.40
10192;DHT22;17580;50.850;4.504;2023-02-15T03:44:28;2.40;98.30
10192;DHT22;17580;50.850;4.504;2023-02-15T03:47:00;2.40;97.90
10192;DHT22;17580;50.850;4.504;2023-02-15T03:49:40;2.40;98.20
10192;DHT22;17580;50.850;4.504;2023-02-15T03:52:10;2.30;97.80
10192;DHT22;17580;50.850;4.504;2023-02-15T03:54:37;2.40;97.80
10192;DHT22;17580;50.850;4.504;2023-02-15T03:57:15;2.30;98.20
10192;DHT22;17580;50.850;4.504;2023-02-15T04:00:02;2.40;97.70
10192;DHT22;17580;50.850;4.504;2023-02-15T04:02:56;2.20;96.90
10192;DHT22;17580;50.850;4.504;2023-02-15T04:05:26;2.40;97.10
10192;DHT22;17580;50.850;4.504;2023-02-15T04:07:53;2.30;97.50
10192;DHT22;17580;50.850;4.504;2023-02-15T04:10:20;2.20;96.90
10192;DHT22;17580;50.850;4.504;2023-02-15T04:13:05;2.30;96.90
10192;DHT22;17580;50.850;4.504;2023-02-15T04:15:32;2.20;97.20
10192;DHT22;17580;50.850;4.504;2023-02-15T04:18:16;2.30;98.90
10192;DHT22;17580;50.850;4.504;2023-02-15T04:20:46;2.20;98.90
10192;DHT22;17580;50.850;4.504;2023-02-15T04:23:31;2.20;99.50
10192;DHT22;17580;50.850;4.504;2023-02-15T04:26:15;2.10;99.00
10192;DHT22;17580;50.850;4.504;2023-02-15T04:28:42;2.10;99.30
10192;DHT22;17580;50.850;4.504;2023-02-15T04:31:09;2.10;98.50
10192;DHT22;17580;50.850;4.504;2023-02-15T04:33:36;2.20;98.30
10192;DHT22;17580;50.850;4.504;2023-02-15T04:36:05;2.20;98.40
10192;DHT22;17580;50.850;4.504;2023-02-15T04:38:32;2.10;98.10
10192;DHT22;17580;50.850;4.504;2023-02-15T04:40:59;2.10;98.90
10192;DHT22;17580;50.850;4.504;2023-02-15T04:43:26;2.00;97.80
10192;DHT22;17580;50.850;4.504;2023-02-15T04:45:53;2.10;97.60
10192;DHT22;17580;50.850;4.504;2023-02-15T04:48:20;1.90;98.50
10192;DHT22;17580;50.850;4.504;2023-02-15T04:50:47;2.10;98.00
10192;DHT22;17580;50.850;4.504;2023-02-15T04:53:15;2.00;97.80
10192;DHT22;17580;50.850;4.504;2023-02-15T04:55:43;2.10;97.70
10192;DHT22;17580;50.850;4.504;2023-02-15T04:58:11;2.00;97.80
10192;DHT22;17580;50.850;4.504;2023-02-15T05:00:38;2.00;99.30
10192;DHT22;17580;50.850;4.504;2023-02-15T05:03:05;2.00;98.90
10192;DHT22;17580;50.850;4.504;2023-02-15T05:05:32;2.00;97.90
10192;DHT22;17580;50.850;4.504;2023-02-15T05:07:59;1.90;97.90
10192;DHT22;17580;50.850;4.504;2023-02-15T05:10:27;1.90;98.80
10192;DHT22;17580;50.850;4.504;2023-02-15T05:12:54;2.00;99.00
10192;DHT22;17580;50.850;4.504;2023-02-15T05:15:21;2.10;98.50
10192;DHT22;17580;50.850;4.504;2023-02-15T05:17:48;2.00;99.10
10192;DHT22;17580;50.850;4.504;2023-02-15T05:20:15;1.80;97.80
10192;DHT22;17580;50.850;4.504;2023-02-15T05:22:42;2.10;98.70
10192;DHT22;17580;50.850;4.504;2023-02-15T05:25:09;2.10;98.50
10192;DHT22;17580;50.850;4.504;2023-02-15T05:27:55;2.10;98.70
10192;DHT22;17580;50.850;4.504;2023-02-15T05:30:39;2.10;97.90
10192;DHT22;17580;50.850;4.504;2023-02-15T05:33:07;1.90;98.00
10192;DHT22;17580;50.850;4.504;2023-02-15T05:35:35;1.90;98.00
10192;DHT22;17580;50.850;4.504;2023-02-15T05:38:02;1.90;97.80
10192;DHT22;17580;50.850;4.504;2023-02-15T05:40:29;1.60;98.30
10192;DHT22;17580;50.850;4.504;2023-02-15T05:42:58;1.80;98.10
10192;DHT22;17580;50.850;4.504;2023-02-15T05:45:25;1.70;99.00
10192;DHT22;17580;50.850;4.504;2023-02-15T05:47:52;1.70;98.40
10192;DHT22;17580;50.850;4.504;2023-02-15T05:50:19;1.80;98.40
10192;DHT22;17580;50.850;4.504;2023-02-15T05:52:46;1.80;98.10
10192;DHT22;17580;50.850;4.504;2023-02-15T05:55:13;1.60;98.20
10192;DHT22;17580;50.850;4.504;2023-02-15T05:57:40;1.70;98.60
10192;DHT22;17580;50.850;4.504;2023-02-15T06:00:13;1.70;99.40
10192;DHT22;17580;50.850;4.504;2023-02-15T06:02:40;1.70;99.60
10192;DHT22;17580;50.850;4.504;2023-02-15T06:05:08;1.80;99.90
10192;DHT22;17580;50.850;4.504;2023-02-15T06:07:35;1.80;99.90
10192;DHT22;17580;50.850;4.504;2023-02-15T06:10:02;1.90;99.90
10192;DHT22;17580;50.850;4.504;2023-02-15T06:12:29;2.00;99.90
10192;DHT22;17580;50.850;4.504;2023-02-15T06:14:56;2.00;99.90
10192;DHT22;17580;50.850;4.504;2023-02-15T06:17:24;2.00;99.90
10192;DHT22;17580;50.850;4.504;2023-02-15T06:19:51;2.10;99.90
10192;DHT22;17580;50.850;4.504;2023-02-15T06:22:18;2.00;99.90
10192;DHT22;17580;50.850;4.504;2023-02-15T06:24:45;2.00;99.90
10192;DHT22;17580;50.850;4.504;2023-02-15T06:27:12;2.00;99.90
10192;DHT22;17580;50.850;4.504;2023-02-15T06:29:40;1.90;99.90
10192;DHT22;17580;50.850;4.504;2023-02-15T06:32:06;1.90;99.90
10192;DHT22;17580;50.850;4.504;2023-02-15T06:34:35;1.90;99.90
10192;DHT22;17580;50.850;4.504;2023-02-15T06:37:02;2.00;99.90
10192;DHT22;17580;50.850;4.504;2023-02-15T06:39:29;2.00;99.90
10192;DHT22;17580;50.850;4.504;2023-02-15T06:41:57;1.90;99.90
10192;DHT22;17580;50.850;4.504;2023-02-15T06:44:25;1.90;99.90
10192;DHT22;17580;50.850;4.504;2023-02-15T06:46:52;1.90;99.90
10192;DHT22;17580;50.850;4.504;2023-02-15T06:49:19;1.80;99.80
10192;DHT22;17580;50.850;4.504;2023-02-15T06:51:49;1.70;99.90
10192;DHT22;17580;50.850;4.504;2023-02-15T06:54:16;1.80;99.90
10192;DHT22;17580;50.850;4.504;2023-02-15T06:56:43;1.80;99.90
10192;DHT22;17580;50.850;4.504;2023-02-15T06:59:10;1.90;99.90
10192;DHT22;17580;50.850;4.504;2023-02-15T07:01:37;1.80;99.90
10192;DHT22;17580;50.850;4.504;2023-02-15T07:04:04;2.10;99.90
10192;DHT22;17580;50.850;4.504;2023-02-15T07:06:31;2.10;99.90
10192;DHT22;17580;50.850;4.504;2023-02-15T07:09:00;2.20;99.90
10192;DHT22;17580;50.850;4.504;2023-02-15T07:11:27;2.10;99.90
10192;DHT22;17580;50.850;4.504;2023-02-15T07:14:12;2.10;99.90
10192;DHT22;17580;50.850;4.504;2023-02-15T07:16:39;2.20;99.90
10192;DHT22;17580;50.850;4.504;2023-02-15T07:19:06;2.10;99.90
10192;DHT22;17580;50.850;4.504;2023-02-15T07:21:33;2.20;99.90
10192;DHT22;17580;50.850;4.504;2023-02-15T07:24:02;2.10;99.90
10192;DHT22;17580;50.850;4.504;2023-02-15T07:26:31;2.10;99.90
10192;DHT22;17580;50.850;4.504;2023-02-15T07:28:59;2.20;99.90
10192;DHT22;17580;50.850;4.504;2023-02-15T07:31:26;2.30;99.90
10192;DHT22;17580;50.850;4.504;2023-02-15T07:33:53;2.30;99.90
10192;DHT22;17580;50.850;4.504;2023-02-15T07:36:20;2.50;99.90
10192;DHT22;17580;50.850;4.504;2023-02-15T07:38:47;2.90;99.90
10192;DHT22;17580;50.850;4.504;2023-02-15T07:41:15;2.60;99.90
10192;DHT22;17580;50.850;4.504;2023-02-15T07:43:44;2.80;99.70
10192;DHT22;17580;50.850;4.504;2023-02-15T07:46:12;3.10;99.90
10192;DHT22;17580;50.850;4.504;2023-02-15T07:48:41;3.50;99.20
10192;DHT22;17580;50.850;4.504;2023-02-15T07:51:09;3.60;96.70
10192;DHT22;17580;50.850;4.504;2023-02-15T07:53:37;3.90;96.40
10192;DHT22;17580;50.850;4.504;2023-02-15T07:56:06;3.90;95.20
10192;DHT22;17580;50.850;4.504;2023-02-15T07:58:35;4.00;95.40
10192;DHT22;17580;50.850;4.504;2023-02-15T08:01:18;3.90;95.70
10192;DHT22;17580;50.850;4.504;2023-02-15T08:03:45;3.90;96.50
10192;DHT22;17580;50.850;4.504;2023-02-15T08:06:12;4.00;96.30
10192;DHT22;17580;50.850;4.504;2023-02-15T08:08:39;4.00;96.00
10192;DHT22;17580;50.850;4.504;2023-02-15T08:11:13;4.00;96.10
10192;DHT22;17580;50.850;4.504;2023-02-15T08:13:57;4.20;96.00
10192;DHT22;17580;50.850;4.504;2023-02-15T08:16:29;4.50;96.10
10192;DHT22;17580;50.850;4.504;2023-02-15T08:18:58;4.70;95.80
10192;DHT22;17580;50.850;4.504;2023-02-15T08:21:27;4.90;95.70
10192;DHT22;17580;50.850;4.504;2023-02-15T08:23:55;5.00;94.70
10192;DHT22;17580;50.850;4.504;2023-02-15T08:26:22;4.90;95.60
10192;DHT22;17580;50.850;4.504;2023-02-15T08:28:50;5.10;94.70
10192;DHT22;17580;50.850;4.504;2023-02-15T08:31:19;5.30;95.20
10192;DHT22;17580;50.850;4.504;2023-02-15T08:33:47;5.60;95.50
10192;DHT22;17580;50.850;4.504;2023-02-15T08:36:16;5.80;95.00
10192;DHT22;17580;50.850;4.504;2023-02-15T08:38:44;6.10;94.90
10192;DHT22;17580;50.850;4.504;2023-02-15T08:41:13;6.90;93.20
10192;DHT22;17580;50.850;4.504;2023-02-15T08:43:41;7.60;91.50
10192;DHT22;17580;50.850;4.504;2023-02-15T08:46:09;8.50;89.60
10192;DHT22;17580;50.850;4.504;2023-02-15T08:48:38;9.30;87.90
10192;DHT22;17580;50.850;4.504;2023-02-15T08:51:07;9.90;82.50
10192;DHT22;17580;50.850;4.504;2023-02-15T08:53:36;10.60;79.90
10192;DHT22;17580;50.850;4.504;2023-02-15T08:56:03;11.30;75.30
10192;DHT22;17580;50.850;4.504;2023-02-15T08:58:32;11.90;70.80
10192;DHT22;17580;50.850;4.504;2023-02-15T09:00:59;12.20;71.40
10192;DHT22;17580;50.850;4.504;2023-02-15T09:03:27;12.60;69.20
10192;DHT22;17580;50.850;4.504;2023-02-15T09:06:00;13.20;68.00
10192;DHT22;17580;50.850;4.504;2023-02-15T09:08:28;13.50;61.30
10192;DHT22;17580;50.850;4.504;2023-02-15T09:11:04;14.30;60.70
10192;DHT22;17580;50.850;4.504;2023-02-15T09:13:31;14.60;57.30
10192;DHT22;17580;50.850;4.504;2023-02-15T09:16:00;14.30;57.90
10192;DHT22;17580;50.850;4.504;2023-02-15T09:18:27;14.60;55.20
10192;DHT22;17580;50.850;4.504;2023-02-15T09:20:54;14.70;52.40
10192;DHT22;17580;50.850;4.504;2023-02-15T09:23:23;14.80;49.50
10192;DHT22;17580;50.850;4.504;2023-02-15T09:25:50;14.90;51.50
10192;DHT22;17580;50.850;4.504;2023-02-15T09:28:17;15.00;51.80
10192;DHT22;17580;50.850;4.504;2023-02-15T09:30:44;15.60;49.30
10192;DHT22;17580;50.850;4.504;2023-02-15T09:33:11;16.30;46.90
10192;DHT22;17580;50.850;4.504;2023-02-15T09:35:38;16.60;41.50
10192;DHT22;17580;50.850;4.504;2023-02-15T09:38:05;17.10;39.80
10192;DHT22;17580;50.850;4.504;2023-02-15T09:40:40;17.50;38.80
10192;DHT22;17580;50.850;4.504;2023-02-15T09:43:22;17.40;35.80
10192;DHT22;17580;50.850;4.504;2023-02-15T09:46:06;17.40;37.00
10192;DHT22;17580;50.850;4.504;2023-02-15T09:48:42;17.70;34.10
10192;DHT22;17580;50.850;4.504;2023-02-15T09:51:32;17.90;28.30
10192;DHT22;17580;50.850;4.504;2023-02-15T09:54:13;17.90;30.80
10192;DHT22;17580;50.850;4.504;2023-02-15T09:56:51;17.80;29.80
10192;DHT22;17580;50.850;4.504;2023-02-15T09:59:24;17.50;27.60
10192;DHT22;17580;50.850;4.504;2023-02-15T10:02:02;17.30;27.60
10192;DHT22;17580;50.850;4.504;2023-02-15T10:04:49;16.90;28.00
10192;DHT22;17580;50.850;4.504;2023-02-15T10:07:29;16.90;26.40
10192;DHT22;17580;50.850;4.504;2023-02-15T10:10:14;17.20;26.80
10192;DHT22;17580;50.850;4.504;2023-02-15T10:12:58;17.10;26.60
10192;DHT22;17580;50.850;4.504;2023-02-15T10:15:42;17.20;25.80
10192;DHT22;17580;50.850;4.504;2023-02-15T10:18:26;17.20;26.30
10192;DHT22;17580;50.850;4.504;2023-02-15T10:21:02;17.40;25.70
10192;DHT22;17580;50.850;4.504;2023-02-15T10:23:55;17.70;26.90
10192;DHT22;17580;50.850;4.504;2023-02-15T10:26:30;17.50;24.80
10192;DHT22;17580;50.850;4.504;2023-02-15T10:29:07;17.50;24.60
10192;DHT22;17580;50.850;4.504;2023-02-15T10:31:39;17.50;23.50
10192;DHT22;17580;50.850;4.504;2023-02-15T10:34:15;17.00;23.50
10192;DHT22;17580;50.850;4.504;2023-02-15T10:37:05;16.40;22.70
10192;DHT22;17580;50.850;4.504;2023-02-15T10:39:43;16.10;24.10
10192;DHT22;17580;50.850;4.504;2023-02-15T10:42:19;15.80;25.50
10192;DHT22;17580;50.850;4.504;2023-02-15T10:45:04;15.60;25.20
10192;DHT22;17580;50.850;4.504;2023-02-15T10:47:48;15.60;25.90
10192;DHT22;17580;50.850;4.504;2023-02-15T10:50:24;16.00;26.20
10192;DHT22;17580;50.850;4.504;2023-02-15T10:53:32;16.30;26.00
10192;DHT22;17580;50.850;4.504;2023-02-15T10:56:11;17.00;25.60
10192;DHT22;17580;50.850;4.504;2023-02-15T10:58:51;18.20;25.00
10192;DHT22;17580;50.850;4.504;2023-02-15T11:01:25;18.30;23.20
10192;DHT22;17580;50.850;4.504;2023-02-15T11:04:11;18.80;22.50
10192;DHT22;17580;50.850;4.504;2023-02-15T11:06:44;19.00;20.70
10192;DHT22;17580;50.850;4.504;2023-02-15T11:09:14;18.90;19.60
10192;DHT22;17580;50.850;4.504;2023-02-15T11:11:46;18.90;20.90
10192;DHT22;17580;50.850;4.504;2023-02-15T11:14:17;18.40;19.60
10192;DHT22;17580;50.850;4.504;2023-02-15T11:16:51;18.10;20.00
10192;DHT22;17580;50.850;4.504;2023-02-15T11:19:22;18.10;20.80
10192;DHT22;17580;50.850;4.504;2023-02-15T11:21:54;18.10;21.60
10192;DHT22;17580;50.850;4.504;2023-02-15T11:24:24;18.30;20.30
10192;DHT22;17580;50.850;4.504;2023-02-15T11:26:56;18.00;21.20
10192;DHT22;17580;50.850;4.504;2023-02-15T11:29:28;17.50;22.10
10192;DHT22;17580;50.850;4.504;2023-02-15T11:32:02;17.30;22.30
10192;DHT22;17580;50.850;4.504;2023-02-15T11:34:34;17.30;23.10
10192;DHT22;17580;50.850;4.504;2023-02-15T11:37:07;17.00;24.10
10192;DHT22;17580;50.850;4.504;2023-02-15T11:39:36;16.70;21.70
10192;DHT22;17580;50.850;4.504;2023-02-15T11:42:09;16.80;21.50
10192;DHT22;17580;50.850;4.504;2023-02-15T11:44:43;17.20;22.50
10192;DHT22;17580;50.850;4.504;2023-02-15T11:47:14;17.60;20.90
10192;DHT22;17580;50.850;4.504;2023-02-15T11:49:41;18.00;21.70
10192;DHT22;17580;50.850;4.504;2023-02-15T11:52:13;17.70;22.10
10192;DHT22;17580;50.850;4.504;2023-02-15T11:54:43;17.80;20.00
10192;DHT22;17580;50.850;4.504;2023-02-15T11:57:14;17.40;21.70
10192;DHT22;17580;50.850;4.504;2023-02-15T11:59:45;17.20;21.10
10192;DHT22;17580;50.850;4.504;2023-02-15T12:02:18;17.00;22.00
10192;DHT22;17580;50.850;4.504;2023-02-15T12:04:49;17.20;21.20
10192;DHT22;17580;50.850;4.504;2023-02-15T12:07:21;17.20;21.30
10192;DHT22;17580;50.850;4.504;2023-02-15T12:09:55;17.30;22.30
10192;DHT22;17580;50.850;4.504;2023-02-15T12:12:27;18.10;23.10
10192;DHT22;17580;50.850;4.504;2023-02-15T12:14:56;18.00;20.90
10192;DHT22;17580;50.850;4.504;2023-02-15T12:17:27;17.80;21.60
10192;DHT22;17580;50.850;4.504;2023-02-15T12:19:56;17.20;21.90
10192;DHT22;17580;50.850;4.504;2023-02-15T12:22:26;16.40;23.00
10192;DHT22;17580;50.850;4.504;2023-02-15T12:24:55;16.10;24.10
10192;DHT22;17580;50.850;4.504;2023-02-15T12:27:26;16.10;23.00
10192;DHT22;17580;50.850;4.504;2023-02-15T12:29:56;16.10;23.80
10192;DHT22;17580;50.850;4.504;2023-02-15T12:32:30;15.60;24.20
10192;DHT22;17580;50.850;4.504;2023-02-15T12:35:01;15.60;24.50
10192;DHT22;17580;50.850;4.504;2023-02-15T12:37:33;15.40;25.10
10192;DHT22;17580;50.850;4.504;2023-02-15T12:40:11;15.50;24.70
10192;DHT22;17580;50.850;4.504;2023-02-15T12:42:45;15.60;25.10
10192;DHT22;17580;50.850;4.504;2023-02-15T12:45:22;15.50;25.30
10192;DHT22;17580;50.850;4.504;2023-02-15T12:48:09;15.90;25.40
10192;DHT22;17580;50.850;4.504;2023-02-15T12:50:37;16.20;23.00
10192;DHT22;17580;50.850;4.504;2023-02-15T12:53:14;16.30;25.00
10192;DHT22;17580;50.850;4.504;2023-02-15T12:55:53;16.90;22.80
10192;DHT22;17580;50.850;4.504;2023-02-15T12:58:22;17.30;22.20
10192;DHT22;17580;50.850;4.504;2023-02-15T13:01:03;17.50;22.50
10192;DHT22;17580;50.850;4.504;2023-02-15T13:03:32;17.20;22.40
10192;DHT22;17580;50.850;4.504;2023-02-15T13:06:01;17.20;21.80
10192;DHT22;17580;50.850;4.504;2023-02-15T13:08:35;17.10;22.40
10192;DHT22;17580;50.850;4.504;2023-02-15T13:11:08;17.20;22.90
10192;DHT22;17580;50.850;4.504;2023-02-15T13:13:38;17.00;22.50
10192;DHT22;17580;50.850;4.504;2023-02-15T13:16:15;16.80;23.10
10192;DHT22;17580;50.850;4.504;2023-02-15T13:18:45;17.20;23.70
10192;DHT22;17580;50.850;4.504;2023-02-15T13:21:15;17.00;23.40
10192;DHT22;17580;50.850;4.504;2023-02-15T13:23:47;17.00;23.30
10192;DHT22;17580;50.850;4.504;2023-02-15T13:26:18;17.20;22.80
10192;DHT22;17580;50.850;4.504;2023-02-15T13:28:47;17.30;24.00
10192;DHT22;17580;50.850;4.504;2023-02-15T13:31:19;17.00;23.50
10192;DHT22;17580;50.850;4.504;2023-02-15T13:33:50;16.80;23.40
10192;DHT22;17580;50.850;4.504;2023-02-15T13:36:23;16.90;24.60
10192;DHT22;17580;50.850;4.504;2023-02-15T13:38:59;17.00;24.50
10192;DHT22;17580;50.850;4.504;2023-02-15T13:41:33;16.40;23.50
10192;DHT22;17580;50.850;4.504;2023-02-15T13:44:09;16.00;24.80
10192;DHT22;17580;50.850;4.504;2023-02-15T13:46:56;15.70;25.70
10192;DHT22;17580;50.850;4.504;2023-02-15T13:49:42;15.80;26.10
10192;DHT22;17580;50.850;4.504;2023-02-15T13:52:19;16.10;25.50
10192;DHT22;17580;50.850;4.504;2023-02-15T13:54:58;16.00;25.30
10192;DHT22;17580;50.850;4.504;2023-02-15T13:57:44;15.90;24.10
10192;DHT22;17580;50.850;4.504;2023-02-15T14:00:22;15.80;26.00
10192;DHT22;17580;50.850;4.504;2023-02-15T14:06:29;16.10;25.60
10192;DHT22;17580;50.850;4.504;2023-02-15T14:09:06;15.90;27.20
10192;DHT22;17580;50.850;4.504;2023-02-15T14:11:41;15.80;26.20
10192;DHT22;17580;50.850;4.504;2023-02-15T14:14:40;15.60;27.10
10192;DHT22;17580;50.850;4.504;2023-02-15T14:17:14;15.40;27.00
10192;DHT22;17580;50.850;4.504;2023-02-15T14:19:48;15.20;27.30
10192;DHT22;17580;50.850;4.504;2023-02-15T14:22:25;15.00;27.60
10192;DHT22;17580;50.850;4.504;2023-02-15T14:25:04;14.80;26.60
10192;DHT22;17580;50.850;4.504;2023-02-15T14:27:44;14.80;27.50
10192;DHT22;17580;50.850;4.504;2023-02-15T14:30:18;14.50;26.80
10192;DHT22;17580;50.850;4.504;2023-02-15T14:32:48;14.40;28.10
10192;DHT22;17580;50.850;4.504;2023-02-15T14:35:18;14.30;28.00
10192;DHT22;17580;50.850;4.504;2023-02-15T14:37:52;14.30;28.10
10192;DHT22;17580;50.850;4.504;2023-02-15T14:40:32;14.20;28.40
10192;DHT22;17580;50.850;4.504;2023-02-15T14:43:27;14.00;29.10
10192;DHT22;17580;50.850;4.504;2023-02-15T14:46:00;14.10;30.30
10192;DHT22;17580;50.850;4.504;2023-02-15T14:48:31;14.10;29.80
10192;DHT22;17580;50.850;4.504;2023-02-15T14:51:00;14.10;30.10
10192;DHT22;17580;50.850;4.504;2023-02-15T14:53:36;13.90;29.90
10192;DHT22;17580;50.850;4.504;2023-02-15T14:56:19;13.80;30.00
10192;DHT22;17580;50.850;4.504;2023-02-15T15:01:40;13.90;30.30
10192;DHT22;17580;50.850;4.504;2023-02-15T15:04:10;13.80;30.00
10192;DHT22;17580;50.850;4.504;2023-02-15T15:06:41;13.80;31.30
10192;DHT22;17580;50.850;4.504;2023-02-15T15:09:18;13.70;29.80
10192;DHT22;17580;50.850;4.504;2023-02-15T15:11:48;13.60;30.00
10192;DHT22;17580;50.850;4.504;2023-02-15T15:14:41;13.60;30.10
10192;DHT22;17580;50.850;4.504;2023-02-15T15:17:13;13.40;30.40
10192;DHT22;17580;50.850;4.504;2023-02-15T15:20:05;13.50;31.30
10192;DHT22;17580;50.850;4.504;2023-02-15T15:22:39;13.50;32.80
10192;DHT22;17580;50.850;4.504;2023-02-15T15:25:42;13.40;33.10
10192;DHT22;17580;50.850;4.504;2023-02-15T15:28:54;13.40;32.40
10192;DHT22;17580;50.850;4.504;2023-02-15T15:31:26;13.30;33.60
10192;DHT22;17580;50.850;4.504;2023-02-15T15:34:16;13.30;33.50
10192;DHT22;17580;50.850;4.504;2023-02-15T15:37:25;13.50;34.70
10192;DHT22;17580;50.850;4.504;2023-02-15T15:40:32;13.40;34.50
10192;DHT22;17580;50.850;4.504;2023-02-15T15:43:31;13.00;33.90
10192;DHT22;17580;50.850;4.504;2023-02-15T15:46:25;13.10;34.80
10192;DHT22;17580;50.850;4.504;2023-02-15T15:49:00;13.00;35.00
10192;DHT22;17580;50.850;4.504;2023-02-15T15:51:30;12.90;35.80
10192;DHT22;17580;50.850;4.504;2023-02-15T15:54:00;12.90;36.50
10192;DHT22;17580;50.850;4.504;2023-02-15T15:56:31;12.70;36.00
10192;DHT22;17580;50.850;4.504;2023-02-15T15:59:05;12.60;36.20
10192;DHT22;17580;50.850;4.504;2023-02-15T16:01:37;12.60;37.10
10192;DHT22;17580;50.850;4.504;2023-02-15T16:04:12;12.50;36.60
10192;DHT22;17580;50.850;4.504;2023-02-15T16:06:40;12.50;38.00
10192;DHT22;17580;50.850;4.504;2023-02-15T16:09:17;12.40;38.40
10192;DHT22;17580;50.850;4.504;2023-02-15T16:11:46;12.30;38.70
10192;DHT22;17580;50.850;4.504;2023-02-15T16:14:18;12.30;39.40
10192;DHT22;17580;50.850;4.504;2023-02-15T16:16:48;12.20;39.80
10192;DHT22;17580;50.850;4.504;2023-02-15T16:19:20;12.20;39.50
10192;DHT22;17580;50.850;4.504;2023-02-15T16:21:48;12.10;40.20
10192;DHT22;17580;50.850;4.504;2023-02-15T16:24:26;12.00;40.60
10192;DHT22;17580;50.850;4.504;2023-02-15T16:27:18;11.90;40.90